Time;durP1;ratioP1;P1;durP2;ratioP2;P2;SDS_P1;SDS_P2;PMS_P1;PMS_P2;Temp;Humidity;BMP_temperature;BMP_pressure;BME280_temperature;BME280_humidity;BME280_pressure;Samples;Min_cycle;Max_cycle;Signal;HPM_P1;HPM_P2
2023/07/03 00:01:26;;;;;;;25.27;15.57;;;;;;;;;;4994436;28;20656;-78
2023/07/03 00:03:51;;;;;;;21.57;14.90;;;;;;;;;;4977756;28;20223;-78
2023/07/03 00:06:17;;;;;;;24.20;15.57;;;;;;;;;;5014477;28;20230;-78
2023/07/03 00:08:42;;;;;;;23.17;15.57;;;;;;;;;;5012428;28;20621;-78
2023/07/03 00:11:07;;;;;;;23.48;15.52;;;;;;;;;;4995070;28;20222;-78
2023/07/03 00:13:33;;;;;;;22.97;15.13;;;;;;;;;;5016422;28;20254;-78
2023/07/03 00:16:01;;;;;;;24.45;15.70;;;;;;;;;;5000248;28;20959;-77
2023/07/03 00:18:26;;;;;;;24.57;16.30;;;;;;;;;;5008524;28;20273;-78
2023/07/03 00:20:54;;;;;;;23.40;15.35;;;;;;;;;;4998382;28;20235;-79
2023/07/03 00:23:22;;;;;;;23.33;16.13;;;;;;;;;;5017011;28;20226;-77
2023/07/03 00:25:48;;;;;;;27.77;15.20;;;;;;;;;;5017255;28;20327;-77
2023/07/03 00:28:14;;;;;;;23.40;16.07;;;;;;;;;;4999533;28;20310;-77
2023/07/03 00:30:39;;;;;;;23.15;15.38;;;;;;;;;;5018013;28;20668;-78
2023/07/03 00:33:04;;;;;;;26.75;15.88;;;;;;;;;;5002089;28;20230;-78
2023/07/03 00:35:29;;;;;;;25.20;16.93;;;;;;;;;;5000899;28;20226;-78
2023/07/03 00:37:55;;;;;;;22.90;15.80;;;;;;;;;;4982825;28;20255;-79
2023/07/03 00:40:20;;;;;;;23.57;16.00;;;;;;;;;;4998328;28;20713;-76
2023/07/03 00:42:45;;;;;;;25.03;16.60;;;;;;;;;;5002062;28;20289;-77
2023/07/03 00:45:10;;;;;;;23.07;16.53;;;;;;;;;;5018034;28;20222;-78
2023/07/03 00:47:36;;;;;;;24.77;16.23;;;;;;;;;;5000461;28;20262;-77
2023/07/03 00:50:01;;;;;;;24.33;16.53;;;;;;;;;;5016045;28;20321;-78
2023/07/03 00:52:27;;;;;;;22.67;16.27;;;;;;;;;;5003016;28;20227;-78
2023/07/03 00:54:53;;;;;;;26.07;16.67;;;;;;;;;;5015159;28;20227;-77
2023/07/03 00:57:18;;;;;;;22.33;16.07;;;;;;;;;;4999655;28;20565;-77
2023/07/03 00:59:43;;;;;;;23.30;16.50;;;;;;;;;;5021593;28;20759;-78
2023/07/03 01:02:18;;;;;;;25.80;17.33;;;;;;;;;;5012994;28;20223;-78
2023/07/03 01:04:51;;;;;;;25.50;17.60;;;;;;;;;;4986836;28;20817;-78
2023/07/03 01:07:17;;;;;;;25.00;17.00;;;;;;;;;;5026976;28;20245;-77
2023/07/03 01:09:47;;;;;;;24.58;16.10;;;;;;;;;;5005931;28;20277;-76
2023/07/03 01:12:12;;;;;;;25.03;16.80;;;;;;;;;;4999129;28;20276;-77
2023/07/03 01:14:37;;;;;;;25.10;16.80;;;;;;;;;;5011072;28;20227;-77
2023/07/03 01:17:03;;;;;;;25.43;17.10;;;;;;;;;;5017351;28;20306;-77
2023/07/03 01:19:31;;;;;;;23.73;16.30;;;;;;;;;;5009581;28;20262;-77
2023/07/03 01:22:22;;;;;;;26.17;16.57;;;;;;;;;;5005890;28;20829;-80
2023/07/03 01:24:51;;;;;;;24.53;16.73;;;;;;;;;;4998903;28;20228;-77
2023/07/03 01:27:16;;;;;;;25.07;16.77;;;;;;;;;;5000233;28;20222;-78
2023/07/03 01:29:42;;;;;;;24.07;16.63;;;;;;;;;;4994252;28;20231;-78
2023/07/03 01:32:07;;;;;;;25.43;17.33;;;;;;;;;;4998681;28;20222;-78
2023/07/03 01:34:32;;;;;;;25.43;17.30;;;;;;;;;;5000218;28;20691;-77
2023/07/03 01:36:58;;;;;;;24.27;17.47;;;;;;;;;;5007427;28;20230;-78
2023/07/03 01:39:23;;;;;;;24.67;17.53;;;;;;;;;;5017697;28;20230;-77
2023/07/03 01:41:49;;;;;;;25.57;17.37;;;;;;;;;;5015721;28;20234;-78
2023/07/03 01:44:14;;;;;;;24.37;17.23;;;;;;;;;;5013547;28;20322;-78
2023/07/03 01:46:39;;;;;;;25.20;18.27;;;;;;;;;;5014688;28;20231;-78
2023/07/03 01:49:10;;;;;;;25.40;17.87;;;;;;;;;;5002565;28;20246;-77
2023/07/03 01:51:37;;;;;;;24.97;17.90;;;;;;;;;;5016993;28;20278;-77
2023/07/03 01:54:22;;;;;;;27.50;18.07;;;;;;;;;;5018437;28;20227;-76
2023/07/03 01:56:50;;;;;;;28.03;18.80;;;;;;;;;;4999518;28;20230;-78
2023/07/03 01:59:17;;;;;;;24.63;17.17;;;;;;;;;;5016131;28;20285;-77
2023/07/03 02:01:47;;;;;;;27.93;18.83;;;;;;;;;;4998707;28;20222;-77
2023/07/03 02:04:45;;;;;;;27.67;18.33;;;;;;;;;;4999996;28;20231;-76
2023/07/03 02:07:10;;;;;;;27.60;18.67;;;;;;;;;;4998225;28;20280;-77
2023/07/03 02:09:36;;;;;;;28.73;18.17;;;;;;;;;;4998268;28;20235;-77
2023/07/03 02:12:01;;;;;;;26.90;18.53;;;;;;;;;;4998087;28;20223;-76
2023/07/03 02:15:02;;;;;;;28.40;18.50;;;;;;;;;;5013555;28;20235;-76
2023/07/03 02:17:28;;;;;;;26.43;18.63;;;;;;;;;;5016789;28;20219;-77
2023/07/03 02:19:54;;;;;;;29.60;18.47;;;;;;;;;;5027989;28;20234;-78
2023/07/03 02:22:19;;;;;;;30.67;18.33;;;;;;;;;;5006697;28;20228;-77
2023/07/03 02:24:44;;;;;;;26.73;18.33;;;;;;;;;;5008441;28;20253;-77
2023/07/03 02:27:10;;;;;;;27.73;18.47;;;;;;;;;;5004561;28;20274;-77
2023/07/03 02:29:35;;;;;;;26.93;17.90;;;;;;;;;;5019317;28;20223;-78
2023/07/03 02:32:00;;;;;;;27.17;18.13;;;;;;;;;;4987414;28;20226;-77
2023/07/03 02:34:26;;;;;;;25.93;17.90;;;;;;;;;;5032675;28;20232;-76
2023/07/03 02:36:51;;;;;;;27.00;18.27;;;;;;;;;;5021059;28;20318;-77
2023/07/03 02:39:16;;;;;;;24.87;17.80;;;;;;;;;;5022440;28;20219;-77
2023/07/03 02:41:41;;;;;;;28.00;18.27;;;;;;;;;;5004016;28;20255;-77
2023/07/03 02:44:07;;;;;;;27.67;17.83;;;;;;;;;;5024044;28;20222;-76
2023/07/03 02:46:32;;;;;;;28.17;17.90;;;;;;;;;;5017551;28;20231;-77
2023/07/03 02:48:57;;;;;;;28.40;17.57;;;;;;;;;;5008812;28;20250;-76
2023/07/03 02:51:22;;;;;;;26.57;17.40;;;;;;;;;;5007894;28;20304;-78
2023/07/03 02:53:48;;;;;;;26.67;18.07;;;;;;;;;;5003584;28;20649;-76
2023/07/03 02:56:13;;;;;;;25.97;18.57;;;;;;;;;;5009008;28;20215;-78
2023/07/03 02:58:38;;;;;;;24.30;17.60;;;;;;;;;;5032756;28;20211;-77
2023/07/03 03:01:04;;;;;;;26.87;18.10;;;;;;;;;;5001387;28;20203;-76
2023/07/03 03:03:29;;;;;;;27.00;18.23;;;;;;;;;;5018657;28;20531;-75
2023/07/03 03:05:55;;;;;;;25.90;17.63;;;;;;;;;;5003431;28;20226;-76
2023/07/03 03:08:21;;;;;;;28.63;17.53;;;;;;;;;;5004443;28;20235;-75
2023/07/03 03:10:46;;;;;;;27.57;17.50;;;;;;;;;;4998967;28;20314;-76
2023/07/03 03:13:12;;;;;;;27.67;18.13;;;;;;;;;;4996591;28;20875;-76
2023/07/03 03:15:37;;;;;;;27.30;17.50;;;;;;;;;;5013411;28;20717;-77
2023/07/03 03:18:03;;;;;;;26.43;18.10;;;;;;;;;;5003615;28;20227;-76
2023/07/03 03:20:28;;;;;;;27.03;17.77;;;;;;;;;;5015319;28;20211;-75
2023/07/03 03:22:53;;;;;;;29.43;18.40;;;;;;;;;;5000673;28;20230;-76
2023/07/03 03:25:18;;;;;;;28.17;18.13;;;;;;;;;;5011205;28;20413;-76
2023/07/03 03:27:44;;;;;;;27.80;18.07;;;;;;;;;;4998348;28;20215;-76
2023/07/03 03:30:09;;;;;;;26.17;18.20;;;;;;;;;;4998295;28;20250;-76
2023/07/03 03:32:34;;;;;;;27.03;18.30;;;;;;;;;;5011756;28;20636;-77
2023/07/03 03:35:00;;;;;;;26.33;18.07;;;;;;;;;;4999060;28;20218;-77
2023/07/03 03:37:26;;;;;;;28.20;18.17;;;;;;;;;;5022450;28;20305;-75
2023/07/03 03:39:51;;;;;;;26.80;17.67;;;;;;;;;;5018245;28;20345;-77
2023/07/03 03:42:16;;;;;;;27.00;17.97;;;;;;;;;;4990151;28;20258;-75
2023/07/03 03:44:42;;;;;;;31.73;18.93;;;;;;;;;;4980791;28;20305;-75
2023/07/03 03:47:07;;;;;;;27.43;18.30;;;;;;;;;;5015307;28;20310;-77
2023/07/03 03:49:32;;;;;;;31.57;18.37;;;;;;;;;;4983319;28;20243;-76
2023/07/03 03:51:58;;;;;;;28.03;18.27;;;;;;;;;;5005594;28;20269;-78
2023/07/03 03:54:26;;;;;;;27.97;18.43;;;;;;;;;;5003704;28;20967;-75
2023/07/03 03:56:51;;;;;;;28.83;18.53;;;;;;;;;;5011173;28;20765;-78
2023/07/03 03:59:17;;;;;;;29.30;18.63;;;;;;;;;;5013722;28;20818;-76
2023/07/03 04:01:42;;;;;;;30.20;18.40;;;;;;;;;;5019719;28;20313;-77
2023/07/03 04:04:08;;;;;;;26.27;18.20;;;;;;;;;;5006709;28;20794;-76
2023/07/03 04:06:35;;;;;;;27.27;19.00;;;;;;;;;;5020613;28;20234;-78
2023/07/03 04:09:01;;;;;;;30.63;18.53;;;;;;;;;;5007605;28;20703;-76
2023/07/03 04:11:27;;;;;;;30.47;19.67;;;;;;;;;;5004528;28;20262;-77
2023/07/03 04:13:53;;;;;;;29.80;18.80;;;;;;;;;;5001663;28;20238;-77
2023/07/03 04:16:18;;;;;;;30.13;19.20;;;;;;;;;;5014549;28;20574;-78
2023/07/03 04:18:43;;;;;;;26.87;18.20;;;;;;;;;;5022951;28;20219;-78
2023/07/03 04:21:09;;;;;;;29.57;19.20;;;;;;;;;;5005524;28;20226;-79
2023/07/03 04:23:34;;;;;;;28.13;18.80;;;;;;;;;;5000935;28;20228;-78
2023/07/03 04:26:00;;;;;;;30.37;19.33;;;;;;;;;;5002679;28;20834;-79
2023/07/03 04:28:26;;;;;;;32.23;19.33;;;;;;;;;;5018341;28;20247;-77
2023/07/03 04:30:51;;;;;;;28.97;19.17;;;;;;;;;;5014803;28;20235;-81
2023/07/03 04:33:16;;;;;;;31.67;19.13;;;;;;;;;;5003948;28;20305;-79
2023/07/03 04:35:42;;;;;;;31.90;19.07;;;;;;;;;;4998032;28;20220;-79
2023/07/03 04:38:07;;;;;;;28.00;19.47;;;;;;;;;;5011163;28;20278;-79
2023/07/03 04:40:35;;;;;;;30.40;19.07;;;;;;;;;;5022004;28;20247;-80
2023/07/03 04:43:00;;;;;;;29.50;19.30;;;;;;;;;;5000172;28;20723;-79
2023/07/03 04:45:26;;;;;;;28.83;18.77;;;;;;;;;;5014582;28;20215;-78
2023/07/03 04:47:51;;;;;;;30.03;19.10;;;;;;;;;;5007441;28;20730;-79
2023/07/03 04:50:17;;;;;;;31.20;19.03;;;;;;;;;;5026708;28;20332;-79
2023/07/03 04:52:43;;;;;;;30.13;19.00;;;;;;;;;;5022303;28;20309;-79
2023/07/03 04:55:09;;;;;;;30.73;19.17;;;;;;;;;;5015973;28;20227;-79
2023/07/03 04:57:38;;;;;;;29.80;18.63;;;;;;;;;;5001823;28;20675;-79
2023/07/03 05:00:17;;;;;;;30.03;18.83;;;;;;;;;;5019497;28;20233;-78
2023/07/03 05:02:43;;;;;;;28.20;18.27;;;;;;;;;;5004229;28;20328;-79
2023/07/03 05:05:10;;;;;;;30.67;18.67;;;;;;;;;;5002055;28;20314;-78
2023/07/03 05:07:36;;;;;;;27.97;18.33;;;;;;;;;;4997765;28;20246;-80
2023/07/03 05:10:01;;;;;;;29.00;18.30;;;;;;;;;;5016773;28;20270;-80
2023/07/03 05:12:26;;;;;;;26.10;17.37;;;;;;;;;;5000057;28;20265;-81
2023/07/03 05:14:51;;;;;;;26.73;17.63;;;;;;;;;;4999589;28;20239;-81
2023/07/03 05:17:17;;;;;;;28.93;18.07;;;;;;;;;;5017645;28;20265;-78
2023/07/03 05:19:42;;;;;;;28.17;17.73;;;;;;;;;;5014675;28;20529;-80
2023/07/03 05:22:07;;;;;;;30.60;18.57;;;;;;;;;;4997615;28;20222;-81
2023/07/03 05:24:34;;;;;;;27.17;18.00;;;;;;;;;;5000464;28;20656;-79
2023/07/03 05:26:59;;;;;;;27.70;18.07;;;;;;;;;;4981562;28;20284;-79
2023/07/03 05:29:24;;;;;;;29.20;18.60;;;;;;;;;;5012025;28;20222;-79
2023/07/03 05:31:49;;;;;;;29.27;18.10;;;;;;;;;;5000366;28;20242;-79
2023/07/03 05:34:15;;;;;;;27.57;17.87;;;;;;;;;;5024984;28;20229;-81
2023/07/03 05:36:40;;;;;;;27.83;17.90;;;;;;;;;;5005923;28;20218;-81
2023/07/03 05:39:05;;;;;;;27.93;17.77;;;;;;;;;;5001657;28;20222;-80
2023/07/03 05:41:30;;;;;;;28.57;17.50;;;;;;;;;;5005380;28;20994;-80
2023/07/03 05:43:56;;;;;;;26.93;18.17;;;;;;;;;;4997270;28;20351;-79
2023/07/03 05:46:21;;;;;;;26.27;17.70;;;;;;;;;;5000399;28;20212;-80
2023/07/03 05:48:46;;;;;;;28.03;17.50;;;;;;;;;;4997783;28;20425;-80
2023/07/03 05:51:12;;;;;;;26.43;17.87;;;;;;;;;;4994748;28;20227;-80
2023/07/03 05:53:37;;;;;;;26.97;17.97;;;;;;;;;;4999024;28;20389;-80
2023/07/03 05:56:02;;;;;;;28.13;17.23;;;;;;;;;;4997985;28;20394;-80
2023/07/03 05:58:28;;;;;;;27.03;17.40;;;;;;;;;;4993960;28;20223;-81
2023/07/03 06:00:53;;;;;;;26.87;17.13;;;;;;;;;;4995289;28;20224;-80
2023/07/03 06:03:18;;;;;;;27.17;17.53;;;;;;;;;;4998627;28;20222;-80
2023/07/03 06:05:44;;;;;;;24.57;17.03;;;;;;;;;;4994288;28;20219;-81
2023/07/03 06:08:10;;;;;;;27.80;18.07;;;;;;;;;;5016781;28;20234;-81
2023/07/03 06:10:36;;;;;;;27.87;16.97;;;;;;;;;;4982148;28;20219;-78
2023/07/03 06:13:01;;;;;;;26.08;17.67;;;;;;;;;;4995302;28;20933;-80
2023/07/03 06:15:27;;;;;;;26.13;16.93;;;;;;;;;;5001317;28;20222;-80
2023/07/03 06:17:52;;;;;;;23.90;16.88;;;;;;;;;;5016417;28;20234;-78
2023/07/03 06:20:17;;;;;;;25.57;17.50;;;;;;;;;;5016895;28;20250;-80
2023/07/03 06:22:43;;;;;;;25.40;17.20;;;;;;;;;;4996465;28;20226;-81
2023/07/03 06:25:08;;;;;;;25.48;16.55;;;;;;;;;;5013265;28;20586;-80
2023/07/03 06:27:33;;;;;;;27.60;17.03;;;;;;;;;;4997782;28;20238;-80
2023/07/03 06:29:59;;;;;;;24.42;16.98;;;;;;;;;;5010550;28;20251;-78
2023/07/03 06:32:24;;;;;;;25.75;17.08;;;;;;;;;;5013582;28;20223;-79
2023/07/03 06:34:49;;;;;;;24.83;17.13;;;;;;;;;;4996723;28;20735;-81
2023/07/03 06:37:15;;;;;;;25.35;17.30;;;;;;;;;;5013357;28;20687;-80
2023/07/03 06:39:40;;;;;;;25.57;16.83;;;;;;;;;;4998857;28;20235;-79
2023/07/03 06:42:06;;;;;;;24.30;17.73;;;;;;;;;;5016131;28;20638;-80
2023/07/03 06:44:31;;;;;;;29.98;17.02;;;;;;;;;;5001129;28;20219;-80
2023/07/03 06:46:56;;;;;;;28.00;17.10;;;;;;;;;;5014662;28;20219;-78
2023/07/03 06:49:24;;;;;;;25.92;16.30;;;;;;;;;;5000855;28;20757;-78
2023/07/03 06:51:49;;;;;;;25.20;17.33;;;;;;;;;;4996480;28;20306;-77
2023/07/03 06:54:15;;;;;;;24.65;16.67;;;;;;;;;;5001374;28;20804;-77
2023/07/03 06:56:40;;;;;;;24.60;15.77;;;;;;;;;;5006773;28;20683;-79
2023/07/03 06:59:05;;;;;;;25.20;16.25;;;;;;;;;;5016595;28;20681;-78
2023/07/03 07:01:30;;;;;;;24.08;16.08;;;;;;;;;;5014587;28;20242;-78
2023/07/03 07:03:56;;;;;;;24.23;15.43;;;;;;;;;;5011908;28;20219;-76
2023/07/03 07:06:22;;;;;;;21.63;15.25;;;;;;;;;;4994985;28;20219;-76
2023/07/03 07:08:47;;;;;;;22.58;15.82;;;;;;;;;;5015183;28;20222;-77
2023/07/03 07:11:14;;;;;;;25.98;16.13;;;;;;;;;;5016514;28;20280;-80
2023/07/03 07:13:40;;;;;;;22.42;15.18;;;;;;;;;;4998103;28;20595;-77
2023/07/03 07:16:09;;;;;;;25.80;15.63;;;;;;;;;;5019471;28;20211;-77
2023/07/03 07:18:35;;;;;;;22.98;15.95;;;;;;;;;;5000131;28;20318;-77
2023/07/03 07:21:00;;;;;;;23.20;15.65;;;;;;;;;;4982408;28;20385;-77
2023/07/03 07:23:25;;;;;;;23.50;15.77;;;;;;;;;;4997452;28;20226;-79
2023/07/03 07:25:53;;;;;;;19.73;13.70;;;;;;;;;;5002382;28;20219;-76
2023/07/03 07:28:19;;;;;;;18.73;13.45;;;;;;;;;;4997147;28;20312;-77
2023/07/03 07:30:44;;;;;;;22.67;14.18;;;;;;;;;;4984356;28;20262;-79
2023/07/03 07:33:09;;;;;;;20.55;13.85;;;;;;;;;;5015563;28;20301;-79
2023/07/03 07:35:35;;;;;;;20.92;13.80;;;;;;;;;;5018353;28;20609;-76
2023/07/03 07:38:00;;;;;;;21.38;13.55;;;;;;;;;;4996859;28;20266;-78
2023/07/03 07:40:26;;;;;;;22.25;14.55;;;;;;;;;;5009318;28;20585;-77
2023/07/03 07:42:51;;;;;;;21.23;14.07;;;;;;;;;;4995938;28;20290;-77
2023/07/03 07:45:16;;;;;;;20.45;13.23;;;;;;;;;;5011441;28;20223;-77
2023/07/03 07:47:42;;;;;;;19.95;13.30;;;;;;;;;;5013125;28;20288;-77
2023/07/03 07:50:07;;;;;;;22.00;14.80;;;;;;;;;;5015044;28;20688;-77
2023/07/03 07:52:33;;;;;;;20.45;13.80;;;;;;;;;;5015575;28;20246;-78
2023/07/03 07:54:58;;;;;;;22.65;13.95;;;;;;;;;;5014365;28;20270;-79
2023/07/03 07:57:23;;;;;;;20.67;12.90;;;;;;;;;;4996373;28;20225;-77
2023/07/03 07:59:49;;;;;;;21.40;13.82;;;;;;;;;;5014931;28;20250;-77
2023/07/03 08:02:14;;;;;;;21.58;13.15;;;;;;;;;;5000051;28;20318;-77
2023/07/03 08:04:39;;;;;;;18.45;12.98;;;;;;;;;;5000403;28;20223;-80
2023/07/03 08:07:05;;;;;;;20.48;12.77;;;;;;;;;;5000547;28;20989;-77
2023/07/03 08:09:30;;;;;;;20.35;12.60;;;;;;;;;;4998329;28;20227;-79
2023/07/03 08:11:55;;;;;;;18.90;12.57;;;;;;;;;;4999855;28;20223;-76
2023/07/03 08:14:20;;;;;;;19.35;11.95;;;;;;;;;;5014056;28;20242;-77
2023/07/03 08:16:46;;;;;;;16.83;11.98;;;;;;;;;;4996646;28;20230;-78
2023/07/03 08:19:11;;;;;;;18.58;12.48;;;;;;;;;;5017023;28;20706;-79
2023/07/03 08:21:36;;;;;;;16.35;11.27;;;;;;;;;;4980429;28;20220;-77
2023/07/03 08:24:02;;;;;;;17.65;11.48;;;;;;;;;;4996468;28;20255;-78
2023/07/03 08:26:27;;;;;;;18.40;11.70;;;;;;;;;;4998097;28;20223;-78
2023/07/03 08:28:53;;;;;;;19.85;12.27;;;;;;;;;;4995193;28;20234;-77
2023/07/03 08:31:18;;;;;;;16.73;11.43;;;;;;;;;;5015333;28;20736;-78
2023/07/03 08:33:43;;;;;;;16.85;11.32;;;;;;;;;;5012299;28;20238;-78
2023/07/03 08:36:08;;;;;;;17.27;11.32;;;;;;;;;;5002672;28;20222;-78
2023/07/03 08:38:34;;;;;;;15.55;11.48;;;;;;;;;;5001938;28;20662;-78
2023/07/03 08:41:00;;;;;;;16.42;11.13;;;;;;;;;;4999315;28;20361;-77
2023/07/03 08:43:36;;;;;;;20.00;10.68;;;;;;;;;;5018558;28;20226;-80
2023/07/03 08:46:02;;;;;;;15.13;10.25;;;;;;;;;;5021494;28;20281;-78
2023/07/03 08:48:27;;;;;;;15.23;10.57;;;;;;;;;;5018061;28;20227;-77
2023/07/03 08:50:54;;;;;;;15.60;9.60;;;;;;;;;;5017362;28;20242;-78
2023/07/03 08:53:20;;;;;;;16.45;10.30;;;;;;;;;;5016409;28;20235;-79
2023/07/03 08:55:48;;;;;;;14.75;10.50;;;;;;;;;;5014645;28;20577;-79
2023/07/03 08:58:13;;;;;;;16.15;10.30;;;;;;;;;;5007399;28;20231;-77
2023/07/03 09:01:08;;;;;;;16.80;10.43;;;;;;;;;;5015226;28;20714;-78
2023/07/03 09:03:52;;;;;;;17.42;10.93;;;;;;;;;;4990981;28;20245;-79
2023/07/03 09:06:43;;;;;;;18.80;11.00;;;;;;;;;;5020349;28;20214;-77
2023/07/03 09:09:12;;;;;;;17.42;11.00;;;;;;;;;;5013564;28;20282;-79
2023/07/03 09:11:39;;;;;;;16.45;10.60;;;;;;;;;;5020452;28;20218;-78
2023/07/03 09:14:04;;;;;;;16.67;10.68;;;;;;;;;;5023971;28;20226;-79
2023/07/03 09:16:30;;;;;;;16.90;10.40;;;;;;;;;;5024728;28;20224;-77
2023/07/03 09:18:55;;;;;;;17.90;10.88;;;;;;;;;;5020386;28;20261;-79
2023/07/03 09:21:21;;;;;;;15.57;10.45;;;;;;;;;;5016565;28;20227;-78
2023/07/03 09:23:54;;;;;;;17.45;10.80;;;;;;;;;;5023796;28;20316;-78
2023/07/03 09:26:23;;;;;;;15.15;10.98;;;;;;;;;;5018336;28;20301;-77
2023/07/03 09:28:50;;;;;;;18.40;11.23;;;;;;;;;;5006456;28;20288;-76
2023/07/03 09:31:15;;;;;;;16.23;10.23;;;;;;;;;;4999858;28;20226;-77
2023/07/03 09:33:40;;;;;;;17.38;10.98;;;;;;;;;;5007489;28;20234;-78
2023/07/03 09:36:26;;;;;;;15.05;10.20;;;;;;;;;;4996872;28;20224;-78
2023/07/03 09:38:52;;;;;;;13.93;10.13;;;;;;;;;;4998475;28;20239;-79
2023/07/03 09:41:26;;;;;;;16.40;10.32;;;;;;;;;;5020127;28;20656;-76
2023/07/03 09:43:52;;;;;;;14.63;10.25;;;;;;;;;;5020282;28;20306;-78
2023/07/03 09:46:19;;;;;;;15.73;10.27;;;;;;;;;;5006477;28;20265;-79
2023/07/03 09:48:45;;;;;;;17.30;10.35;;;;;;;;;;5011522;28;20228;-79
2023/07/03 09:51:18;;;;;;;14.43;10.60;;;;;;;;;;4999995;28;20227;-80
2023/07/03 09:53:44;;;;;;;13.57;9.95;;;;;;;;;;5014851;28;20239;-78
2023/07/03 09:56:12;;;;;;;14.80;9.80;;;;;;;;;;4982932;28;20329;-79
2023/07/03 09:58:38;;;;;;;15.45;9.80;;;;;;;;;;5010451;28;20223;-78
2023/07/03 10:01:04;;;;;;;14.15;10.27;;;;;;;;;;5000148;28;20265;-80
2023/07/03 10:03:30;;;;;;;13.88;9.68;;;;;;;;;;5011214;28;20227;-78
2023/07/03 10:05:55;;;;;;;15.25;10.05;;;;;;;;;;4997643;28;20277;-79
2023/07/03 10:08:22;;;;;;;13.55;9.60;;;;;;;;;;4983232;28;20423;-78
2023/07/03 10:10:47;;;;;;;15.15;9.80;;;;;;;;;;5016647;28;20223;-79
2023/07/03 10:13:14;;;;;;;14.45;9.60;;;;;;;;;;5000178;28;20663;-78
2023/07/03 10:15:39;;;;;;;15.57;9.40;;;;;;;;;;5016875;28;20234;-80
2023/07/03 10:18:08;;;;;;;13.88;9.52;;;;;;;;;;5013261;28;20825;-80
2023/07/03 10:20:34;;;;;;;13.05;8.80;;;;;;;;;;5013870;28;20676;-78
2023/07/03 10:23:02;;;;;;;13.85;9.35;;;;;;;;;;4994542;28;20593;-79
2023/07/03 10:25:28;;;;;;;13.32;9.18;;;;;;;;;;5017155;28;20222;-79
2023/07/03 10:27:55;;;;;;;14.02;9.60;;;;;;;;;;4996509;28;20672;-78
2023/07/03 10:30:20;;;;;;;12.75;8.65;;;;;;;;;;5015853;28;20229;-79
2023/07/03 10:32:47;;;;;;;12.38;8.93;;;;;;;;;;4981665;28;20238;-80
2023/07/03 10:35:14;;;;;;;13.13;8.65;;;;;;;;;;5014216;28;21141;-79
2023/07/03 10:37:44;;;;;;;13.40;8.50;;;;;;;;;;4995951;28;20273;-79
2023/07/03 10:40:22;;;;;;;15.60;8.60;;;;;;;;;;5015214;28;20219;-79
2023/07/03 10:42:49;;;;;;;15.10;8.50;;;;;;;;;;5005605;28;20310;-80
2023/07/03 10:45:14;;;;;;;12.30;8.25;;;;;;;;;;5013992;28;20238;-78
2023/07/03 10:47:52;;;;;;;15.00;9.60;;;;;;;;;;5004405;28;20223;-80
2023/07/03 10:50:18;;;;;;;13.10;8.80;;;;;;;;;;4996022;28;20325;-79
2023/07/03 10:53:02;;;;;;;13.23;8.95;;;;;;;;;;5014630;28;20349;-79
2023/07/03 10:55:37;;;;;;;13.20;8.38;;;;;;;;;;5012293;28;20223;-79
2023/07/03 10:58:21;;;;;;;14.25;8.43;;;;;;;;;;4984677;28;20866;-78
2023/07/03 11:00:52;;;;;;;14.10;8.85;;;;;;;;;;5012697;28;20671;-78
2023/07/03 11:03:24;;;;;;;12.73;8.25;;;;;;;;;;4998473;28;20229;-77
2023/07/03 11:05:56;;;;;;;13.35;8.52;;;;;;;;;;4998170;28;20223;-79
2023/07/03 11:08:25;;;;;;;12.43;8.52;;;;;;;;;;5011481;28;20223;-77
2023/07/03 11:10:53;;;;;;;13.98;9.40;;;;;;;;;;4998421;28;20231;-78
2023/07/03 11:13:20;;;;;;;15.95;8.40;;;;;;;;;;5004071;28;20782;-78
2023/07/03 11:15:51;;;;;;;13.27;8.57;;;;;;;;;;4980358;28;20286;-77
2023/07/03 11:18:28;;;;;;;10.77;8.10;;;;;;;;;;5014445;28;20230;-78
2023/07/03 11:20:58;;;;;;;14.98;10.07;;;;;;;;;;4999510;28;20233;-77
2023/07/03 11:23:42;;;;;;;14.45;9.00;;;;;;;;;;5014621;28;20223;-78
2023/07/03 11:26:33;;;;;;;13.35;8.88;;;;;;;;;;5024632;28;20218;-77
2023/07/03 11:28:59;;;;;;;11.88;8.20;;;;;;;;;;5016459;28;20299;-77
2023/07/03 11:31:24;;;;;;;12.43;8.32;;;;;;;;;;5014335;28;20306;-80
2023/07/03 11:33:51;;;;;;;13.90;8.45;;;;;;;;;;5016918;28;20233;-78
2023/07/03 11:36:36;;;;;;;14.00;8.20;;;;;;;;;;5023831;28;20230;-80
2023/07/03 11:39:11;;;;;;;10.63;7.55;;;;;;;;;;5015419;28;20738;-77
2023/07/03 11:41:44;;;;;;;11.75;7.25;;;;;;;;;;5021706;28;20234;-78
2023/07/03 11:44:35;;;;;;;10.48;7.10;;;;;;;;;;5019541;28;20222;-79
2023/07/03 11:47:04;;;;;;;9.65;6.53;;;;;;;;;;5016815;28;20223;-78
2023/07/03 11:49:30;;;;;;;10.05;7.25;;;;;;;;;;5005052;28;20313;-79
2023/07/03 11:51:56;;;;;;;9.75;6.32;;;;;;;;;;4998710;28;20234;-79
2023/07/03 11:54:22;;;;;;;10.15;6.07;;;;;;;;;;5000763;28;20238;-81
2023/07/03 11:56:49;;;;;;;8.13;6.20;;;;;;;;;;5019391;28;20234;-79
2023/07/03 11:59:23;;;;;;;8.88;6.50;;;;;;;;;;5024248;28;20226;-78
2023/07/03 12:01:51;;;;;;;10.00;6.57;;;;;;;;;;5039006;28;20275;-81
2023/07/03 12:04:44;;;;;;;11.10;6.32;;;;;;;;;;5007174;28;20230;-79
2023/07/03 12:07:10;;;;;;;8.63;6.63;;;;;;;;;;5021388;28;20218;-80
2023/07/03 12:09:35;;;;;;;10.00;6.35;;;;;;;;;;5024505;28;20222;-78
2023/07/03 12:12:02;;;;;;;10.43;6.63;;;;;;;;;;5031168;28;20234;-81
2023/07/03 12:14:56;;;;;;;10.15;6.35;;;;;;;;;;5024577;28;20265;-80
2023/07/03 12:17:28;;;;;;;11.27;6.20;;;;;;;;;;5007744;28;20297;-81
2023/07/03 12:20:02;;;;;;;10.25;6.00;;;;;;;;;;5033870;28;20222;-80
2023/07/03 12:22:27;;;;;;;9.68;6.35;;;;;;;;;;5034271;28;20238;-79
2023/07/03 12:25:06;;;;;;;8.05;5.93;;;;;;;;;;5032313;28;20707;-79
2023/07/03 12:27:31;;;;;;;9.18;6.13;;;;;;;;;;5016908;28;20302;-81
2023/07/03 12:29:56;;;;;;;9.07;6.10;;;;;;;;;;5005403;28;20227;-80
2023/07/03 12:32:22;;;;;;;8.82;6.20;;;;;;;;;;5026417;28;20233;-80
2023/07/03 12:34:49;;;;;;;10.60;6.00;;;;;;;;;;5032047;28;20253;-79
2023/07/03 12:37:15;;;;;;;10.10;6.18;;;;;;;;;;5026865;28;20226;-79
2023/07/03 12:39:44;;;;;;;9.15;6.15;;;;;;;;;;5028701;28;20226;-79
2023/07/03 12:42:09;;;;;;;8.85;6.00;;;;;;;;;;5029192;28;20225;-81
2023/07/03 12:44:35;;;;;;;8.07;6.03;;;;;;;;;;5024595;28;20231;-81
2023/07/03 12:47:07;;;;;;;9.27;5.80;;;;;;;;;;5003185;28;20214;-81
2023/07/03 12:49:32;;;;;;;10.18;5.88;;;;;;;;;;5022027;28;20269;-80
2023/07/03 12:51:58;;;;;;;8.98;5.88;;;;;;;;;;5041539;28;20288;-81
2023/07/03 12:54:24;;;;;;;9.95;5.68;;;;;;;;;;5032075;28;20237;-79
2023/07/03 12:56:50;;;;;;;9.75;5.53;;;;;;;;;;5016419;28;20225;-79
2023/07/03 12:59:16;;;;;;;8.65;6.00;;;;;;;;;;5023585;28;20222;-80
2023/07/03 13:01:42;;;;;;;7.35;5.50;;;;;;;;;;5017704;28;20301;-81
2023/07/03 13:04:07;;;;;;;7.35;5.53;;;;;;;;;;4999508;28;20314;-81
2023/07/03 13:06:33;;;;;;;7.22;5.28;;;;;;;;;;4999596;28;20219;-79
2023/07/03 13:08:58;;;;;;;10.75;5.38;;;;;;;;;;5025082;28;20285;-81
2023/07/03 13:11:33;;;;;;;7.43;5.47;;;;;;;;;;5027844;28;20309;-81
2023/07/03 13:14:17;;;;;;;7.00;5.25;;;;;;;;;;5027376;28;20282;-81
2023/07/03 13:16:43;;;;;;;7.85;5.30;;;;;;;;;;5025828;28;20237;-81
2023/07/03 13:19:08;;;;;;;7.45;5.30;;;;;;;;;;5030220;28;20214;-81
2023/07/03 13:21:34;;;;;;;8.52;5.10;;;;;;;;;;5025726;28;20226;-80
2023/07/03 13:24:06;;;;;;;7.43;5.05;;;;;;;;;;5027593;28;20373;-79
2023/07/03 13:26:32;;;;;;;7.35;5.05;;;;;;;;;;5030013;28;20226;-78
2023/07/03 13:29:01;;;;;;;7.13;5.00;;;;;;;;;;5023611;28;20238;-78
2023/07/03 13:31:30;;;;;;;7.20;4.90;;;;;;;;;;5021709;28;20203;-80
2023/07/03 13:34:18;;;;;;;8.50;5.07;;;;;;;;;;5036205;28;20238;-78
2023/07/03 13:36:44;;;;;;;9.38;4.75;;;;;;;;;;5011415;28;20778;-81
2023/07/03 13:39:16;;;;;;;8.68;5.10;;;;;;;;;;5023480;28;20222;-79
2023/07/03 13:41:41;;;;;;;7.28;5.20;;;;;;;;;;5021091;28;20218;-80
2023/07/03 13:44:07;;;;;;;7.57;4.80;;;;;;;;;;5021574;28;20233;-80
2023/07/03 13:46:33;;;;;;;5.82;4.65;;;;;;;;;;5025544;28;20241;-79
2023/07/03 13:48:59;;;;;;;9.32;5.00;;;;;;;;;;5012388;28;20799;-80
2023/07/03 13:51:24;;;;;;;5.80;4.63;;;;;;;;;;5026270;28;20247;-79
2023/07/03 13:53:50;;;;;;;6.75;4.63;;;;;;;;;;5025283;28;20245;-80
2023/07/03 13:56:16;;;;;;;6.97;4.90;;;;;;;;;;5024294;28;20274;-78
2023/07/03 13:58:41;;;;;;;6.47;4.65;;;;;;;;;;5026593;28;20254;-80
2023/07/03 14:01:06;;;;;;;7.75;5.00;;;;;;;;;;4999750;28;20227;-81
2023/07/03 14:03:32;;;;;;;6.22;5.00;;;;;;;;;;5019746;28;20230;-79
2023/07/03 14:05:57;;;;;;;6.82;4.80;;;;;;;;;;5003752;28;20701;-81
2023/07/03 14:08:22;;;;;;;5.95;4.80;;;;;;;;;;5028852;28;20218;-78
2023/07/03 14:10:48;;;;;;;6.32;4.75;;;;;;;;;;5019602;28;20335;-78
2023/07/03 14:13:13;;;;;;;5.72;4.65;;;;;;;;;;5024469;28;20222;-79
2023/07/03 14:15:39;;;;;;;5.75;4.45;;;;;;;;;;5024481;28;20229;-81
2023/07/03 14:18:04;;;;;;;8.07;5.03;;;;;;;;;;5024049;28;20222;-79
2023/07/03 14:20:29;;;;;;;6.03;4.55;;;;;;;;;;5017503;28;20223;-80
2023/07/03 14:22:55;;;;;;;8.98;4.60;;;;;;;;;;5023084;28;20256;-80
2023/07/03 14:25:22;;;;;;;6.93;4.57;;;;;;;;;;5025697;28;20317;-80